sensor_id;sensor_type;location;lat;lon;timestamp;temperature;humidity
67141;DHT22;54058;52.010;5.546;2023-11-19T00:00:46;13.20;99.90
67141;DHT22;54058;52.010;5.546;2023-11-19T00:03:12;13.20;99.90
67141;DHT22;54058;52.010;5.546;2023-11-19T00:05:38;13.20;99.90
67141;DHT22;54058;52.010;5.546;2023-11-19T00:08:04;13.20;99.90
67141;DHT22;54058;52.010;5.546;2023-11-19T00:10:31;13.30;99.90
67141;DHT22;54058;52.010;5.546;2023-11-19T00:12:57;13.30;99.90
67141;DHT22;54058;52.010;5.546;2023-11-19T00:15:22;13.30;99.90
67141;DHT22;54058;52.010;5.546;2023-11-19T00:17:49;13.20;99.90
67141;DHT22;54058;52.010;5.546;2023-11-19T00:20:17;13.20;99.90
67141;DHT22;54058;52.010;5.546;2023-11-19T00:22:44;13.20;99.90
67141;DHT22;54058;52.010;5.546;2023-11-19T00:25:10;13.20;99.90
67141;DHT22;54058;52.010;5.546;2023-11-19T00:27:36;13.30;99.90
67141;DHT22;54058;52.010;5.546;2023-11-19T00:30:03;13.30;99.90
67141;DHT22;54058;52.010;5.546;2023-11-19T00:32:31;13.20;99.90
67141;DHT22;54058;52.010;5.546;2023-11-19T00:34:57;13.20;99.90
67141;DHT22;54058;52.010;5.546;2023-11-19T00:37:23;13.20;99.90
67141;DHT22;54058;52.010;5.546;2023-11-19T00:39:48;13.20;99.90
67141;DHT22;54058;52.010;5.546;2023-11-19T00:42:14;13.20;99.90
67141;DHT22;54058;52.010;5.546;2023-11-19T00:44:39;13.20;99.90
67141;DHT22;54058;52.010;5.546;2023-11-19T00:47:06;13.20;99.90
67141;DHT22;54058;52.010;5.546;2023-11-19T00:49:32;13.20;99.90
67141;DHT22;54058;52.010;5.546;2023-11-19T00:51:58;13.20;99.90
67141;DHT22;54058;52.010;5.546;2023-11-19T00:54:24;13.20;99.90
67141;DHT22;54058;52.010;5.546;2023-11-19T00:56:52;13.20;99.90
67141;DHT22;54058;52.010;5.546;2023-11-19T00:59:18;13.20;99.90
67141;DHT22;54058;52.010;5.546;2023-11-19T01:01:44;13.20;99.90
67141;DHT22;54058;52.010;5.546;2023-11-19T01:04:10;13.10;99.90
67141;DHT22;54058;52.010;5.546;2023-11-19T01:06:35;13.10;99.90
67141;DHT22;54058;52.010;5.546;2023-11-19T01:09:01;13.20;99.90
67141;DHT22;54058;52.010;5.546;2023-11-19T01:11:27;13.20;99.90
67141;DHT22;54058;52.010;5.546;2023-11-19T01:13:53;13.20;99.90
67141;DHT22;54058;52.010;5.546;2023-11-19T01:16:19;13.20;99.90
67141;DHT22;54058;52.010;5.546;2023-11-19T01:18:49;13.10;99.90
67141;DHT22;54058;52.010;5.546;2023-11-19T01:21:15;13.10;99.90
67141;DHT22;54058;52.010;5.546;2023-11-19T01:23:44;13.10;99.90
67141;DHT22;54058;52.010;5.546;2023-11-19T01:26:10;13.20;99.90
67141;DHT22;54058;52.010;5.546;2023-11-19T01:28:36;13.10;99.90
67141;DHT22;54058;52.010;5.546;2023-11-19T01:31:02;13.10;99.90
67141;DHT22;54058;52.010;5.546;2023-11-19T01:33:29;13.10;99.90
67141;DHT22;54058;52.010;5.546;2023-11-19T01:35:55;13.10;99.90
67141;DHT22;54058;52.010;5.546;2023-11-19T01:38:24;13.10;99.90
67141;DHT22;54058;52.010;5.546;2023-11-19T01:40:50;13.10;99.90
67141;DHT22;54058;52.010;5.546;2023-11-19T01:43:32;13.10;99.90
67141;DHT22;54058;52.010;5.546;2023-11-19T01:45:58;13.10;99.90
67141;DHT22;54058;52.010;5.546;2023-11-19T01:48:24;13.10;99.90
67141;DHT22;54058;52.010;5.546;2023-11-19T01:50:50;13.10;99.90
67141;DHT22;54058;52.010;5.546;2023-11-19T01:53:17;13.10;99.90
67141;DHT22;54058;52.010;5.546;2023-11-19T01:55:44;13.10;99.90
67141;DHT22;54058;52.010;5.546;2023-11-19T01:58:09;13.10;99.90
67141;DHT22;54058;52.010;5.546;2023-11-19T02:00:35;13.10;99.90
67141;DHT22;54058;52.010;5.546;2023-11-19T02:03:02;13.10;99.90
67141;DHT22;54058;52.010;5.546;2023-11-19T02:05:28;13.10;99.90
67141;DHT22;54058;52.010;5.546;2023-11-19T02:07:54;13.10;99.90
67141;DHT22;54058;52.010;5.546;2023-11-19T02:10:20;13.00;99.90
67141;DHT22;54058;52.010;5.546;2023-11-19T02:12:46;13.00;99.90
67141;DHT22;54058;52.010;5.546;2023-11-19T02:15:12;13.00;99.90
67141;DHT22;54058;52.010;5.546;2023-11-19T02:17:37;13.00;99.90
67141;DHT22;54058;52.010;5.546;2023-11-19T02:20:06;13.00;99.90
67141;DHT22;54058;52.010;5.546;2023-11-19T02:22:35;12.90;99.90
67141;DHT22;54058;52.010;5.546;2023-11-19T02:25:04;12.90;99.90
67141;DHT22;54058;52.010;5.546;2023-11-19T02:27:53;12.90;99.90
67141;DHT22;54058;52.010;5.546;2023-11-19T02:30:21;12.80;99.90
67141;DHT22;54058;52.010;5.546;2023-11-19T02:32:52;12.80;99.90
67141;DHT22;54058;52.010;5.546;2023-11-19T02:35:18;12.80;99.90
67141;DHT22;54058;52.010;5.546;2023-11-19T02:37:45;12.80;99.90
67141;DHT22;54058;52.010;5.546;2023-11-19T02:40:10;12.80;99.90
67141;DHT22;54058;52.010;5.546;2023-11-19T02:42:36;12.80;99.90
67141;DHT22;54058;52.010;5.546;2023-11-19T02:45:02;12.80;99.90
67141;DHT22;54058;52.010;5.546;2023-11-19T02:47:32;12.80;99.90
67141;DHT22;54058;52.010;5.546;2023-11-19T02:49:59;12.70;99.90
67141;DHT22;54058;52.010;5.546;2023-11-19T02:52:25;12.70;99.90
67141;DHT22;54058;52.010;5.546;2023-11-19T02:54:51;12.70;99.90
67141;DHT22;54058;52.010;5.546;2023-11-19T02:57:16;12.70;99.90
67141;DHT22;54058;52.010;5.546;2023-11-19T02:59:45;12.70;99.90
67141;DHT22;54058;52.010;5.546;2023-11-19T03:02:10;12.60;99.90
67141;DHT22;54058;52.010;5.546;2023-11-19T03:04:41;12.60;99.90
67141;DHT22;54058;52.010;5.546;2023-11-19T03:07:09;12.50;99.90
67141;DHT22;54058;52.010;5.546;2023-11-19T03:09:35;12.50;99.90
67141;DHT22;54058;52.010;5.546;2023-11-19T03:12:04;12.40;99.90
67141;DHT22;54058;52.010;5.546;2023-11-19T03:14:33;12.40;99.90
67141;DHT22;54058;52.010;5.546;2023-11-19T03:16:59;12.30;99.90
67141;DHT22;54058;52.010;5.546;2023-11-19T03:19:25;12.40;99.90
67141;DHT22;54058;52.010;5.546;2023-11-19T03:21:52;12.30;99.90
67141;DHT22;54058;52.010;5.546;2023-11-19T03:24:17;12.30;99.90
67141;DHT22;54058;52.010;5.546;2023-11-19T03:26:50;12.30;99.90
67141;DHT22;54058;52.010;5.546;2023-11-19T03:29:16;12.30;99.90
67141;DHT22;54058;52.010;5.546;2023-11-19T03:31:42;12.30;99.90
67141;DHT22;54058;52.010;5.546;2023-11-19T03:34:08;12.20;99.90
67141;DHT22;54058;52.010;5.546;2023-11-19T03:36:34;12.20;99.90
67141;DHT22;54058;52.010;5.546;2023-11-19T03:39:00;12.10;99.90
67141;DHT22;54058;52.010;5.546;2023-11-19T03:41:25;12.10;99.90
67141;DHT22;54058;52.010;5.546;2023-11-19T03:43:52;12.10;99.90
67141;DHT22;54058;52.010;5.546;2023-11-19T03:46:18;12.00;99.90
67141;DHT22;54058;52.010;5.546;2023-11-19T03:48:44;12.00;99.90
67141;DHT22;54058;52.010;5.546;2023-11-19T03:51:11;11.90;99.90
67141;DHT22;54058;52.010;5.546;2023-11-19T03:53:49;11.90;99.90
67141;DHT22;54058;52.010;5.546;2023-11-19T03:56:15;11.90;99.90
67141;DHT22;54058;52.010;5.546;2023-11-19T03:58:40;11.80;99.90
67141;DHT22;54058;52.010;5.546;2023-11-19T04:01:11;11.80;99.90
67141;DHT22;54058;52.010;5.546;2023-11-19T04:03:38;11.80;99.90
67141;DHT22;54058;52.010;5.546;2023-11-19T04:06:04;11.70;99.90
67141;DHT22;54058;52.010;5.546;2023-11-19T04:08:30;11.70;99.90
67141;DHT22;54058;52.010;5.546;2023-11-19T04:10:55;11.70;99.90
67141;DHT22;54058;52.010;5.546;2023-11-19T04:13:21;11.70;99.90
67141;DHT22;54058;52.010;5.546;2023-11-19T04:15:49;11.60;99.90
67141;DHT22;54058;52.010;5.546;2023-11-19T04:18:16;11.70;99.90
67141;DHT22;54058;52.010;5.546;2023-11-19T04:20:41;11.60;99.90
67141;DHT22;54058;52.010;5.546;2023-11-19T04:23:08;11.60;99.90
67141;DHT22;54058;52.010;5.546;2023-11-19T04:25:35;11.60;99.90
67141;DHT22;54058;52.010;5.546;2023-11-19T04:28:01;11.50;99.90
67141;DHT22;54058;52.010;5.546;2023-11-19T04:30:27;11.50;99.90
67141;DHT22;54058;52.010;5.546;2023-11-19T04:32:53;11.50;99.90
67141;DHT22;54058;52.010;5.546;2023-11-19T04:35:19;11.50;99.90
67141;DHT22;54058;52.010;5.546;2023-11-19T04:37:44;11.50;99.90
67141;DHT22;54058;52.010;5.546;2023-11-19T04:40:10;11.50;99.90
67141;DHT22;54058;52.010;5.546;2023-11-19T04:42:37;11.50;99.90
67141;DHT22;54058;52.010;5.546;2023-11-19T04:45:06;11.50;99.90
67141;DHT22;54058;52.010;5.546;2023-11-19T04:47:33;11.50;99.90
67141;DHT22;54058;52.010;5.546;2023-11-19T04:49:59;11.50;99.90
67141;DHT22;54058;52.010;5.546;2023-11-19T04:52:25;11.50;99.90
67141;DHT22;54058;52.010;5.546;2023-11-19T04:54:51;11.50;99.90
67141;DHT22;54058;52.010;5.546;2023-11-19T04:57:17;11.50;99.90
67141;DHT22;54058;52.010;5.546;2023-11-19T04:59:43;11.50;99.90
67141;DHT22;54058;52.010;5.546;2023-11-19T05:02:08;11.40;99.90
67141;DHT22;54058;52.010;5.546;2023-11-19T05:04:34;11.40;99.90
67141;DHT22;54058;52.010;5.546;2023-11-19T05:07:00;11.40;99.90
67141;DHT22;54058;52.010;5.546;2023-11-19T05:09:26;11.40;99.90
67141;DHT22;54058;52.010;5.546;2023-11-19T05:11:52;11.40;99.90
67141;DHT22;54058;52.010;5.546;2023-11-19T05:14:18;11.40;99.90
67141;DHT22;54058;52.010;5.546;2023-11-19T05:16:47;11.50;99.90
67141;DHT22;54058;52.010;5.546;2023-11-19T05:19:13;11.50;99.90
67141;DHT22;54058;52.010;5.546;2023-11-19T05:21:42;11.50;99.90
67141;DHT22;54058;52.010;5.546;2023-11-19T05:24:08;11.50;99.90
67141;DHT22;54058;52.010;5.546;2023-11-19T05:26:33;11.50;99.90
67141;DHT22;54058;52.010;5.546;2023-11-19T05:28:59;11.50;99.90
67141;DHT22;54058;52.010;5.546;2023-11-19T05:31:25;11.50;99.90
67141;DHT22;54058;52.010;5.546;2023-11-19T05:33:50;11.40;99.90
67141;DHT22;54058;52.010;5.546;2023-11-19T05:36:17;11.50;99.90
67141;DHT22;54058;52.010;5.546;2023-11-19T05:38:42;11.50;99.90
67141;DHT22;54058;52.010;5.546;2023-11-19T05:41:10;11.50;99.90
67141;DHT22;54058;52.010;5.546;2023-11-19T05:43:35;11.50;99.90
67141;DHT22;54058;52.010;5.546;2023-11-19T05:46:01;11.50;99.90
67141;DHT22;54058;52.010;5.546;2023-11-19T05:48:27;11.50;99.90
67141;DHT22;54058;52.010;5.546;2023-11-19T05:50:53;11.50;99.90
67141;DHT22;54058;52.010;5.546;2023-11-19T05:53:19;11.50;99.90
67141;DHT22;54058;52.010;5.546;2023-11-19T05:55:44;11.60;99.90
67141;DHT22;54058;52.010;5.546;2023-11-19T05:58:14;11.60;99.90
67141;DHT22;54058;52.010;5.546;2023-11-19T06:00:40;11.60;99.90
67141;DHT22;54058;52.010;5.546;2023-11-19T06:03:09;11.60;99.90
67141;DHT22;54058;52.010;5.546;2023-11-19T06:05:34;11.50;99.90
67141;DHT22;54058;52.010;5.546;2023-11-19T06:08:00;11.60;99.90
67141;DHT22;54058;52.010;5.546;2023-11-19T06:10:26;11.60;99.90
67141;DHT22;54058;52.010;5.546;2023-11-19T06:13:00;11.60;99.90
67141;DHT22;54058;52.010;5.546;2023-11-19T06:15:43;11.60;99.90
67141;DHT22;54058;52.010;5.546;2023-11-19T06:18:09;11.50;99.90
67141;DHT22;54058;52.010;5.546;2023-11-19T06:20:38;11.50;99.90
67141;DHT22;54058;52.010;5.546;2023-11-19T06:23:03;11.50;99.90
67141;DHT22;54058;52.010;5.546;2023-11-19T06:25:29;11.50;99.90
67141;DHT22;54058;52.010;5.546;2023-11-19T06:27:55;11.40;99.90
67141;DHT22;54058;52.010;5.546;2023-11-19T06:30:20;11.40;99.90
67141;DHT22;54058;52.010;5.546;2023-11-19T06:32:46;11.40;99.90
67141;DHT22;54058;52.010;5.546;2023-11-19T06:35:12;11.40;99.90
67141;DHT22;54058;52.010;5.546;2023-11-19T06:37:40;11.40;99.90
67141;DHT22;54058;52.010;5.546;2023-11-19T06:40:06;11.40;99.90
67141;DHT22;54058;52.010;5.546;2023-11-19T06:42:32;11.40;99.90
67141;DHT22;54058;52.010;5.546;2023-11-19T06:44:58;11.40;99.90
67141;DHT22;54058;52.010;5.546;2023-11-19T06:47:27;11.30;99.90
67141;DHT22;54058;52.010;5.546;2023-11-19T06:49:53;11.30;99.90
67141;DHT22;54058;52.010;5.546;2023-11-19T06:52:19;11.30;99.90
67141;DHT22;54058;52.010;5.546;2023-11-19T06:54:45;11.40;99.90
67141;DHT22;54058;52.010;5.546;2023-11-19T06:57:13;11.40;99.90
67141;DHT22;54058;52.010;5.546;2023-11-19T06:59:39;11.40;99.90
67141;DHT22;54058;52.010;5.546;2023-11-19T07:02:06;11.40;99.90
67141;DHT22;54058;52.010;5.546;2023-11-19T07:04:32;11.40;99.90
67141;DHT22;54058;52.010;5.546;2023-11-19T07:06:59;11.40;99.90
67141;DHT22;54058;52.010;5.546;2023-11-19T07:09:27;11.40;99.90
67141;DHT22;54058;52.010;5.546;2023-11-19T07:11:53;11.40;99.90
67141;DHT22;54058;52.010;5.546;2023-11-19T07:14:19;11.50;99.90
67141;DHT22;54058;52.010;5.546;2023-11-19T07:16:45;11.50;99.90
67141;DHT22;54058;52.010;5.546;2023-11-19T07:19:11;11.50;99.90
67141;DHT22;54058;52.010;5.546;2023-11-19T07:21:40;11.50;99.90
67141;DHT22;54058;52.010;5.546;2023-11-19T07:24:09;11.60;99.90
67141;DHT22;54058;52.010;5.546;2023-11-19T07:26:36;11.60;99.90
67141;DHT22;54058;52.010;5.546;2023-11-19T07:29:02;11.60;99.90
67141;DHT22;54058;52.010;5.546;2023-11-19T07:31:28;11.60;99.90
67141;DHT22;54058;52.010;5.546;2023-11-19T07:33:54;11.60;99.90
67141;DHT22;54058;52.010;5.546;2023-11-19T07:36:19;11.60;99.90
67141;DHT22;54058;52.010;5.546;2023-11-19T07:38:46;11.60;99.90
67141;DHT22;54058;52.010;5.546;2023-11-19T07:41:13;11.70;99.90
67141;DHT22;54058;52.010;5.546;2023-11-19T07:43:43;11.70;99.90
67141;DHT22;54058;52.010;5.546;2023-11-19T07:46:13;11.70;99.90
67141;DHT22;54058;52.010;5.546;2023-11-19T07:48:40;11.70;99.90
67141;DHT22;54058;52.010;5.546;2023-11-19T07:51:06;11.70;99.90
67141;DHT22;54058;52.010;5.546;2023-11-19T07:53:31;11.70;99.90
67141;DHT22;54058;52.010;5.546;2023-11-19T07:55:58;11.80;99.90
67141;DHT22;54058;52.010;5.546;2023-11-19T07:58:27;11.80;99.90
67141;DHT22;54058;52.010;5.546;2023-11-19T08:00:52;11.80;99.90
67141;DHT22;54058;52.010;5.546;2023-11-19T08:03:18;11.80;99.90
67141;DHT22;54058;52.010;5.546;2023-11-19T08:05:50;11.80;99.90
67141;DHT22;54058;52.010;5.546;2023-11-19T08:08:16;11.80;99.90
67141;DHT22;54058;52.010;5.546;2023-11-19T08:10:42;11.90;99.90
67141;DHT22;54058;52.010;5.546;2023-11-19T08:13:10;11.90;99.90
67141;DHT22;54058;52.010;5.546;2023-11-19T08:15:36;11.90;99.90
67141;DHT22;54058;52.010;5.546;2023-11-19T08:18:01;11.90;99.90
67141;DHT22;54058;52.010;5.546;2023-11-19T08:20:27;11.90;99.90
67141;DHT22;54058;52.010;5.546;2023-11-19T08:22:53;11.90;99.90
67141;DHT22;54058;52.010;5.546;2023-11-19T08:25:19;12.00;99.90
67141;DHT22;54058;52.010;5.546;2023-11-19T08:27:44;12.00;99.90
67141;DHT22;54058;52.010;5.546;2023-11-19T08:30:11;12.00;99.90
67141;DHT22;54058;52.010;5.546;2023-11-19T08:32:37;12.00;99.90
67141;DHT22;54058;52.010;5.546;2023-11-19T08:35:03;12.10;99.90
67141;DHT22;54058;52.010;5.546;2023-11-19T08:37:28;12.20;99.90
67141;DHT22;54058;52.010;5.546;2023-11-19T08:39:54;12.20;99.90
67141;DHT22;54058;52.010;5.546;2023-11-19T08:42:20;12.20;99.90
67141;DHT22;54058;52.010;5.546;2023-11-19T08:44:50;12.20;99.90
67141;DHT22;54058;52.010;5.546;2023-11-19T08:47:19;12.30;99.90
67141;DHT22;54058;52.010;5.546;2023-11-19T08:49:45;12.30;99.90
67141;DHT22;54058;52.010;5.546;2023-11-19T08:52:11;12.30;99.90
67141;DHT22;54058;52.010;5.546;2023-11-19T08:54:37;12.40;99.90
67141;DHT22;54058;52.010;5.546;2023-11-19T08:57:03;12.40;99.90
67141;DHT22;54058;52.010;5.546;2023-11-19T08:59:30;12.50;99.90
67141;DHT22;54058;52.010;5.546;2023-11-19T09:01:55;12.50;99.90
67141;DHT22;54058;52.010;5.546;2023-11-19T09:04:21;12.50;99.90
67141;DHT22;54058;52.010;5.546;2023-11-19T09:06:48;12.50;99.90
67141;DHT22;54058;52.010;5.546;2023-11-19T09:09:14;12.50;99.90
67141;DHT22;54058;52.010;5.546;2023-11-19T09:11:40;12.60;99.90
67141;DHT22;54058;52.010;5.546;2023-11-19T09:14:08;12.60;99.90
67141;DHT22;54058;52.010;5.546;2023-11-19T09:16:34;12.60;99.90
67141;DHT22;54058;52.010;5.546;2023-11-19T09:18:59;12.60;99.90
67141;DHT22;54058;52.010;5.546;2023-11-19T09:21:26;12.60;99.90
67141;DHT22;54058;52.010;5.546;2023-11-19T09:23:51;12.70;99.90
67141;DHT22;54058;52.010;5.546;2023-11-19T09:26:18;12.80;99.90
67141;DHT22;54058;52.010;5.546;2023-11-19T09:28:44;12.80;99.90
67141;DHT22;54058;52.010;5.546;2023-11-19T09:31:16;12.80;99.90
67141;DHT22;54058;52.010;5.546;2023-11-19T09:33:42;12.90;99.90
67141;DHT22;54058;52.010;5.546;2023-11-19T09:36:09;12.90;99.90
67141;DHT22;54058;52.010;5.546;2023-11-19T09:38:36;12.90;99.90
67141;DHT22;54058;52.010;5.546;2023-11-19T09:41:05;12.90;99.90
67141;DHT22;54058;52.010;5.546;2023-11-19T09:43:34;12.90;99.90
67141;DHT22;54058;52.010;5.546;2023-11-19T09:46:09;12.90;99.90
67141;DHT22;54058;52.010;5.546;2023-11-19T09:48:37;13.00;99.90
67141;DHT22;54058;52.010;5.546;2023-11-19T09:51:04;13.00;99.90
67141;DHT22;54058;52.010;5.546;2023-11-19T09:53:31;13.10;99.90
67141;DHT22;54058;52.010;5.546;2023-11-19T09:55:59;13.10;99.90
67141;DHT22;54058;52.010;5.546;2023-11-19T09:58:26;13.20;99.90
67141;DHT22;54058;52.010;5.546;2023-11-19T10:00:51;13.20;99.90
67141;DHT22;54058;52.010;5.546;2023-11-19T10:03:20;13.30;99.90
67141;DHT22;54058;52.010;5.546;2023-11-19T10:05:47;13.40;99.90
67141;DHT22;54058;52.010;5.546;2023-11-19T10:08:13;13.40;99.90
67141;DHT22;54058;52.010;5.546;2023-11-19T10:10:39;13.40;99.90
67141;DHT22;54058;52.010;5.546;2023-11-19T10:13:05;13.40;99.90
67141;DHT22;54058;52.010;5.546;2023-11-19T10:15:36;13.40;99.90
67141;DHT22;54058;52.010;5.546;2023-11-19T10:18:02;13.40;99.90
67141;DHT22;54058;52.010;5.546;2023-11-19T10:20:37;13.30;99.90
67141;DHT22;54058;52.010;5.546;2023-11-19T10:23:06;13.30;99.90
67141;DHT22;54058;52.010;5.546;2023-11-19T10:25:32;13.30;99.90
67141;DHT22;54058;52.010;5.546;2023-11-19T10:28:00;13.30;99.90
67141;DHT22;54058;52.010;5.546;2023-11-19T10:30:30;13.30;99.90
67141;DHT22;54058;52.010;5.546;2023-11-19T10:35:27;13.30;99.90
67141;DHT22;54058;52.010;5.546;2023-11-19T10:37:53;13.40;99.90
67141;DHT22;54058;52.010;5.546;2023-11-19T10:40:19;13.40;99.90
67141;DHT22;54058;52.010;5.546;2023-11-19T10:42:45;13.40;99.90
67141;DHT22;54058;52.010;5.546;2023-11-19T10:45:24;13.40;99.90
67141;DHT22;54058;52.010;5.546;2023-11-19T10:47:51;13.40;99.90
67141;DHT22;54058;52.010;5.546;2023-11-19T10:50:17;13.40;99.90
67141;DHT22;54058;52.010;5.546;2023-11-19T10:52:44;13.40;99.90
67141;DHT22;54058;52.010;5.546;2023-11-19T10:55:11;13.50;99.90
67141;DHT22;54058;52.010;5.546;2023-11-19T10:57:43;13.40;99.90
67141;DHT22;54058;52.010;5.546;2023-11-19T11:00:12;13.50;99.90
67141;DHT22;54058;52.010;5.546;2023-11-19T11:02:41;13.50;99.90
67141;DHT22;54058;52.010;5.546;2023-11-19T11:05:09;13.60;99.90
67141;DHT22;54058;52.010;5.546;2023-11-19T11:07:36;13.60;99.90
67141;DHT22;54058;52.010;5.546;2023-11-19T11:10:03;13.70;99.90
67141;DHT22;54058;52.010;5.546;2023-11-19T11:12:34;13.70;99.90
67141;DHT22;54058;52.010;5.546;2023-11-19T11:15:03;13.60;99.90
67141;DHT22;54058;52.010;5.546;2023-11-19T11:17:32;13.60;99.90
67141;DHT22;54058;52.010;5.546;2023-11-19T11:19:58;13.60;99.90
67141;DHT22;54058;52.010;5.546;2023-11-19T11:22:25;13.70;99.90
67141;DHT22;54058;52.010;5.546;2023-11-19T11:25:11;13.70;99.90
67141;DHT22;54058;52.010;5.546;2023-11-19T11:27:48;13.70;99.90
67141;DHT22;54058;52.010;5.546;2023-11-19T11:30:31;13.70;99.90
67141;DHT22;54058;52.010;5.546;2023-11-19T11:38:36;13.80;99.90
67141;DHT22;54058;52.010;5.546;2023-11-19T11:41:21;13.80;99.90
67141;DHT22;54058;52.010;5.546;2023-11-19T11:43:56;13.80;99.90
67141;DHT22;54058;52.010;5.546;2023-11-19T11:49:02;13.80;99.90
67141;DHT22;54058;52.010;5.546;2023-11-19T11:59:27;13.70;99.90
67141;DHT22;54058;52.010;5.546;2023-11-19T12:02:00;13.60;99.90
67141;DHT22;54058;52.010;5.546;2023-11-19T12:04:27;13.60;99.90
67141;DHT22;54058;52.010;5.546;2023-11-19T12:07:06;13.60;99.90
67141;DHT22;54058;52.010;5.546;2023-11-19T12:09:33;13.60;99.90
67141;DHT22;54058;52.010;5.546;2023-11-19T12:12:22;13.60;99.90
67141;DHT22;54058;52.010;5.546;2023-11-19T12:15:05;13.70;99.90
67141;DHT22;54058;52.010;5.546;2023-11-19T12:20:04;13.70;99.90
67141;DHT22;54058;52.010;5.546;2023-11-19T12:22:37;13.80;99.90
67141;DHT22;54058;52.010;5.546;2023-11-19T12:25:05;13.90;99.90
67141;DHT22;54058;52.010;5.546;2023-11-19T12:27:31;13.90;99.90
67141;DHT22;54058;52.010;5.546;2023-11-19T12:29:56;14.00;99.90
67141;DHT22;54058;52.010;5.546;2023-11-19T12:32:22;14.00;99.90
67141;DHT22;54058;52.010;5.546;2023-11-19T12:34:48;14.00;99.90
67141;DHT22;54058;52.010;5.546;2023-11-19T12:37:14;14.00;99.90
67141;DHT22;54058;52.010;5.546;2023-11-19T12:39:40;14.00;99.90
67141;DHT22;54058;52.010;5.546;2023-11-19T12:42:06;14.00;99.90
67141;DHT22;54058;52.010;5.546;2023-11-19T12:44:32;14.00;99.90
67141;DHT22;54058;52.010;5.546;2023-11-19T12:47:00;14.00;99.90
67141;DHT22;54058;52.010;5.546;2023-11-19T12:49:26;14.10;99.90
67141;DHT22;54058;52.010;5.546;2023-11-19T12:51:52;14.00;99.90
67141;DHT22;54058;52.010;5.546;2023-11-19T12:54:18;14.10;99.90
67141;DHT22;54058;52.010;5.546;2023-11-19T12:56:52;14.10;99.90
67141;DHT22;54058;52.010;5.546;2023-11-19T12:59:18;14.10;99.90
67141;DHT22;54058;52.010;5.546;2023-11-19T13:02:00;14.00;99.90
67141;DHT22;54058;52.010;5.546;2023-11-19T13:04:30;14.00;99.90
67141;DHT22;54058;52.010;5.546;2023-11-19T13:07:01;14.00;99.90
67141;DHT22;54058;52.010;5.546;2023-11-19T13:09:29;14.00;99.90
67141;DHT22;54058;52.010;5.546;2023-11-19T13:11:56;14.00;99.90
67141;DHT22;54058;52.010;5.546;2023-11-19T13:14:22;14.00;99.90
67141;DHT22;54058;52.010;5.546;2023-11-19T13:16:49;14.00;99.90
67141;DHT22;54058;52.010;5.546;2023-11-19T13:19:15;14.00;99.90
67141;DHT22;54058;52.010;5.546;2023-11-19T13:21:45;13.90;99.90
67141;DHT22;54058;52.010;5.546;2023-11-19T13:24:13;13.90;99.90
67141;DHT22;54058;52.010;5.546;2023-11-19T13:26:38;13.90;99.90
67141;DHT22;54058;52.010;5.546;2023-11-19T13:29:04;13.90;99.90
67141;DHT22;54058;52.010;5.546;2023-11-19T13:31:30;13.80;99.90
67141;DHT22;54058;52.010;5.546;2023-11-19T13:33:56;13.90;99.90
67141;DHT22;54058;52.010;5.546;2023-11-19T13:36:23;13.80;99.90
67141;DHT22;54058;52.010;5.546;2023-11-19T13:38:49;13.80;99.90
67141;DHT22;54058;52.010;5.546;2023-11-19T13:41:14;13.80;99.90
67141;DHT22;54058;52.010;5.546;2023-11-19T13:43:40;13.70;99.90
67141;DHT22;54058;52.010;5.546;2023-11-19T13:46:06;13.70;99.90
67141;DHT22;54058;52.010;5.546;2023-11-19T13:48:32;13.60;99.90
67141;DHT22;54058;52.010;5.546;2023-11-19T13:50:58;13.60;99.90
67141;DHT22;54058;52.010;5.546;2023-11-19T13:53:23;13.60;99.90
67141;DHT22;54058;52.010;5.546;2023-11-19T13:55:49;13.50;99.90
67141;DHT22;54058;52.010;5.546;2023-11-19T13:58:15;13.50;99.90
67141;DHT22;54058;52.010;5.546;2023-11-19T14:00:41;13.50;99.90
67141;DHT22;54058;52.010;5.546;2023-11-19T14:03:08;13.50;99.90
67141;DHT22;54058;52.010;5.546;2023-11-19T14:05:35;13.40;99.90
67141;DHT22;54058;52.010;5.546;2023-11-19T14:08:01;13.40;99.90
67141;DHT22;54058;52.010;5.546;2023-11-19T14:10:27;13.40;99.90
67141;DHT22;54058;52.010;5.546;2023-11-19T14:12:52;13.50;99.90
67141;DHT22;54058;52.010;5.546;2023-11-19T14:15:18;13.50;99.90
67141;DHT22;54058;52.010;5.546;2023-11-19T14:17:44;13.50;99.90
67141;DHT22;54058;52.010;5.546;2023-11-19T14:20:10;13.50;99.90
67141;DHT22;54058;52.010;5.546;2023-11-19T14:22:42;13.50;99.90
67141;DHT22;54058;52.010;5.546;2023-11-19T14:25:09;13.50;99.90
67141;DHT22;54058;52.010;5.546;2023-11-19T14:27:38;13.50;99.90
67141;DHT22;54058;52.010;5.546;2023-11-19T14:30:08;13.50;99.90
67141;DHT22;54058;52.010;5.546;2023-11-19T14:32:36;13.40;99.90
67141;DHT22;54058;52.010;5.546;2023-11-19T14:35:06;13.40;99.90
67141;DHT22;54058;52.010;5.546;2023-11-19T14:37:32;13.30;99.90
67141;DHT22;54058;52.010;5.546;2023-11-19T14:39:57;13.30;99.90
67141;DHT22;54058;52.010;5.546;2023-11-19T14:42:24;13.20;99.90
67141;DHT22;54058;52.010;5.546;2023-11-19T14:44:51;13.10;99.90
67141;DHT22;54058;52.010;5.546;2023-11-19T14:47:18;13.10;99.90
67141;DHT22;54058;52.010;5.546;2023-11-19T14:49:44;13.10;99.90
67141;DHT22;54058;52.010;5.546;2023-11-19T14:52:10;13.10;99.90
67141;DHT22;54058;52.010;5.546;2023-11-19T14:54:36;13.10;99.90
67141;DHT22;54058;52.010;5.546;2023-11-19T14:57:02;13.00;99.90
67141;DHT22;54058;52.010;5.546;2023-11-19T14:59:28;13.00;99.90
67141;DHT22;54058;52.010;5.546;2023-11-19T15:01:54;13.00;99.90
67141;DHT22;54058;52.010;5.546;2023-11-19T15:04:20;12.90;99.90
67141;DHT22;54058;52.010;5.546;2023-11-19T15:06:45;12.90;99.90
67141;DHT22;54058;52.010;5.546;2023-11-19T15:09:11;13.00;99.90
67141;DHT22;54058;52.010;5.546;2023-11-19T15:11:45;12.90;99.90
67141;DHT22;54058;52.010;5.546;2023-11-19T15:14:12;12.90;99.90
67141;DHT22;54058;52.010;5.546;2023-11-19T15:16:42;12.90;99.90
67141;DHT22;54058;52.010;5.546;2023-11-19T15:19:07;12.90;99.90
67141;DHT22;54058;52.010;5.546;2023-11-19T15:21:34;12.90;99.90
67141;DHT22;54058;52.010;5.546;2023-11-19T15:24:00;12.90;99.90
67141;DHT22;54058;52.010;5.546;2023-11-19T15:26:26;12.90;99.90
67141;DHT22;54058;52.010;5.546;2023-11-19T15:28:52;12.90;99.90
67141;DHT22;54058;52.010;5.546;2023-11-19T15:31:22;12.90;99.90
67141;DHT22;54058;52.010;5.546;2023-11-19T15:33:48;12.90;99.90
67141;DHT22;54058;52.010;5.546;2023-11-19T15:36:13;12.90;99.90
67141;DHT22;54058;52.010;5.546;2023-11-19T15:38:40;12.90;99.90
67141;DHT22;54058;52.010;5.546;2023-11-19T15:41:06;12.90;99.90
67141;DHT22;54058;52.010;5.546;2023-11-19T15:43:33;12.90;99.90
67141;DHT22;54058;52.010;5.546;2023-11-19T15:45:59;12.90;99.90
67141;DHT22;54058;52.010;5.546;2023-11-19T15:48:24;12.90;99.90
67141;DHT22;54058;52.010;5.546;2023-11-19T15:50:51;12.90;99.90